KDRO/DRO METAR and TAF weather

Enter ICAO airport designator
Station Type Date Time Source
KDRO METAR 2022/06/30 00:53 UTC NOAA

KDRO 300053Z AUTO 31010G21KT 10SM SCT100 29/05 A3025 RMK AO2 SLP154 T02890050


Station Type Date Time Source
KDRO Decoded METAR 2022/06/30 00:53 UTC NOAA

DURANGO-LA PLATA COUNTY AIRPORT , CO, United States (KDRO) 37-09N 107-46W 2035M
Jun 29, 2022 - 08:53 PM EDT / 2022.06.30 0053 UTC
Wind: from the NW (310 degrees) at 12 MPH (10 KT) gusting to 24 MPH (21 KT):0
Visibility: 10 mile(s):0
Sky conditions: partly cloudy
Temperature: 84.0 F (28.9 C)
Dew Point: 41.0 F (5.0 C)
Relative Humidity: 21%
Pressure (altimeter): 30.25 in. Hg (1024 hPa)
ob: KDRO 300053Z AUTO 31010G21KT 10SM SCT100 29/05 A3025 RMK AO2 SLP154 T02890050
cycle: 1

Station Type Date Time Source
KDRO TAF 2022/06/29 18:42 UTC NOAA

TAF KDRO 291740Z 2918/3018 VRB04KT P6SM SKC
FM292000 24008KT P6SM FEW110 SCT250
FM300000 27010G15KT P6SM FEW110 FEW250
FM300200 VRB04KT P6SM FEW250

Example: see airport list